Albuquerque (West), New Mexico
Current Conditions -  °F | °C
As of 10:46 AM on Monday 22 Dec 2014 (Local Time) from KAEG Reporting Station
Scattered Clouds Scattered Clouds  
Wind Chill: 12°   Ceiling: Unl
Heat Index: 12°   Visibility: 10mi
Dew Point:   Wind: 15mph
Humidity: 44%   Direction: 270°W
Pressure: 29.88"   Gusts: 21mph
Location:  35.15°N, 106.8°W
Report Text: KAEG 221746Z 27013G18KT 10SM FEW035 SCT065 SCT120 12/00 A2988
Loading
Personal Weather Stations






























Interactive Weather Map New forecast layout! Learn more

10-Day Weather Forecast

Advertisements
Track Severe Weather on mobile